Time;durP1;ratioP1;P1;durP2;ratioP2;P2;SDS_P1;SDS_P2;PMS_P1;PMS_P2;Temp;Humidity;BMP_temperature;BMP_pressure;BME280_temperature;BME280_humidity;BME280_pressure;Samples;Min_cycle;Max_cycle;Signal;HPM_P1;HPM_P2
2021/05/13 00:00:29;;;;;;;12.68;3.80;;;;;;;;;;1465265;40;20706;-81
2021/05/13 00:01:31;;;;;;;17.80;5.00;;;;;;;;;;1469585;40;20584;-81
2021/05/13 00:02:32;;;;;;;7.65;3.80;;;;;;;;;;1473531;40;20651;-81
2021/05/13 00:03:34;;;;;;;10.73;3.85;;;;;;;;;;1473430;40;20454;-80
2021/05/13 00:04:36;;;;;;;9.57;4.32;;;;;;;;;;1473578;40;20404;-81
2021/05/13 00:05:38;;;;;;;10.80;4.45;;;;;;;;;;1469097;40;20421;-81
2021/05/13 00:06:39;;;;;;;12.45;3.95;;;;;;;;;;1468973;40;20472;-81
2021/05/13 00:07:42;;;;;;;12.93;4.20;;;;;;;;;;1473484;40;20428;-80
2021/05/13 00:08:43;;;;;;;11.57;4.55;;;;;;;;;;1470937;40;20429;-81
2021/05/13 00:09:46;;;;;;;9.88;4.45;;;;;;;;;;1470796;40;20445;-80
2021/05/13 00:10:48;;;;;;;10.85;4.78;;;;;;;;;;1471189;40;20586;-80
2021/05/13 00:11:53;;;;;;;10.90;4.00;;;;;;;;;;1470553;40;20429;-81
2021/05/13 00:12:58;;;;;;;9.07;3.83;;;;;;;;;;1468959;40;20480;-80
2021/05/13 00:14:01;;;;;;;10.93;4.15;;;;;;;;;;1474254;40;20423;-81
2021/05/13 00:15:12;;;;;;;12.35;3.83;;;;;;;;;;1473997;40;20667;-81
2021/05/13 00:16:14;;;;;;;11.07;4.13;;;;;;;;;;1471300;40;20402;-81
2021/05/13 00:17:16;;;;;;;9.43;4.53;;;;;;;;;;1473905;40;20408;-81
2021/05/13 00:18:18;;;;;;;13.48;4.70;;;;;;;;;;1473927;40;20428;-81
2021/05/13 00:19:19;;;;;;;12.10;4.30;;;;;;;;;;1473831;40;20418;-80
2021/05/13 00:20:27;;;;;;;14.82;4.10;;;;;;;;;;1474691;40;20411;-81
2021/05/13 00:21:29;;;;;;;12.63;4.68;;;;;;;;;;1473110;40;20396;-81
2021/05/13 00:22:31;;;;;;;11.93;4.95;;;;;;;;;;1473831;40;20407;-81
2021/05/13 00:23:33;;;;;;;11.38;4.93;;;;;;;;;;1471398;40;20428;-81
2021/05/13 00:24:34;;;;;;;13.07;4.30;;;;;;;;;;1470639;40;20429;-81
2021/05/13 00:25:36;;;;;;;13.25;4.75;;;;;;;;;;1474274;40;20414;-81
2021/05/13 00:26:41;;;;;;;12.30;3.80;;;;;;;;;;1474699;40;20647;-81
2021/05/13 00:27:42;;;;;;;13.43;4.38;;;;;;;;;;1474434;40;20441;-81
2021/05/13 00:28:44;;;;;;;10.73;4.93;;;;;;;;;;1469425;40;20921;-81
2021/05/13 00:29:45;;;;;;;16.08;5.22;;;;;;;;;;1465869;40;20408;-81
2021/05/13 00:30:48;;;;;;;13.10;4.40;;;;;;;;;;1470290;40;20406;-81
2021/05/13 00:31:49;;;;;;;10.65;4.53;;;;;;;;;;1473982;40;20546;-81
2021/05/13 00:32:52;;;;;;;13.23;4.80;;;;;;;;;;1474017;40;20590;-81
2021/05/13 00:33:53;;;;;;;11.32;4.68;;;;;;;;;;1473454;40;20625;-81
2021/05/13 00:34:55;;;;;;;10.48;4.60;;;;;;;;;;1474465;40;20800;-81
2021/05/13 00:35:56;;;;;;;12.00;4.90;;;;;;;;;;1471979;40;20405;-81
2021/05/13 00:36:58;;;;;;;11.70;4.13;;;;;;;;;;1471805;40;20424;-81
2021/05/13 00:38:00;;;;;;;12.55;4.80;;;;;;;;;;1469780;40;20409;-81
2021/05/13 00:39:04;;;;;;;12.10;4.90;;;;;;;;;;1473946;40;20396;-81
2021/05/13 00:40:08;;;;;;;10.63;4.32;;;;;;;;;;1473747;40;20407;-81
2021/05/13 00:41:09;;;;;;;13.13;5.35;;;;;;;;;;1474123;40;20896;-81
2021/05/13 00:42:11;;;;;;;12.93;4.50;;;;;;;;;;1474004;40;20422;-80
2021/05/13 00:43:13;;;;;;;13.15;4.32;;;;;;;;;;1470900;40;20421;-81
2021/05/13 00:44:14;;;;;;;13.95;4.38;;;;;;;;;;1474117;40;21184;-80
2021/05/13 00:45:18;;;;;;;10.70;4.32;;;;;;;;;;1474834;40;20433;-81
2021/05/13 00:46:21;;;;;;;11.73;4.55;;;;;;;;;;1475018;40;20416;-80
2021/05/13 00:47:25;;;;;;;15.00;4.45;;;;;;;;;;1475645;40;20429;-81
2021/05/13 00:48:33;;;;;;;11.60;4.57;;;;;;;;;;1482438;40;20419;-80
2021/05/13 00:49:35;;;;;;;9.57;5.18;;;;;;;;;;1478700;40;20392;-80
2021/05/13 00:50:36;;;;;;;11.45;4.80;;;;;;;;;;1477430;40;20543;-80
2021/05/13 00:51:38;;;;;;;12.18;4.78;;;;;;;;;;1476971;40;20435;-81
2021/05/13 00:52:40;;;;;;;9.45;4.47;;;;;;;;;;1471981;40;20418;-81
2021/05/13 00:53:46;;;;;;;10.40;4.82;;;;;;;;;;1470489;40;20430;-81
2021/05/13 00:54:48;;;;;;;12.45;4.57;;;;;;;;;;1470788;40;20425;-80
2021/05/13 00:55:50;;;;;;;11.82;4.75;;;;;;;;;;1472197;40;20420;-79
2021/05/13 00:56:52;;;;;;;9.60;4.78;;;;;;;;;;1473962;40;20855;-80
2021/05/13 00:57:55;;;;;;;13.68;4.68;;;;;;;;;;1472067;40;20443;-80
2021/05/13 00:59:02;;;;;;;11.57;4.88;;;;;;;;;;1474036;40;20479;-80
2021/05/13 01:00:18;;;;;;;15.32;4.93;;;;;;;;;;1474272;40;20787;-80
2021/05/13 01:01:22;;;;;;;13.38;5.15;;;;;;;;;;1471486;40;20421;-80
2021/05/13 01:02:24;;;;;;;12.20;5.70;;;;;;;;;;1470711;40;20467;-80
2021/05/13 01:03:26;;;;;;;9.05;4.10;;;;;;;;;;1473257;40;20474;-80
2021/05/13 01:04:27;;;;;;;12.10;5.20;;;;;;;;;;1473341;40;20534;-80
2021/05/13 01:05:30;;;;;;;9.52;4.13;;;;;;;;;;1473853;40;20423;-80
2021/05/13 01:06:34;;;;;;;11.43;5.53;;;;;;;;;;1472806;40;20412;-80
2021/05/13 01:07:36;;;;;;;14.93;5.25;;;;;;;;;;1473798;40;20438;-80
2021/05/13 01:08:38;;;;;;;16.17;5.13;;;;;;;;;;1471916;40;20417;-80
2021/05/13 01:09:40;;;;;;;11.93;5.38;;;;;;;;;;1473629;40;20519;-80
2021/05/13 01:10:41;;;;;;;11.20;4.95;;;;;;;;;;1469825;40;20408;-80
2021/05/13 01:11:44;;;;;;;12.65;5.15;;;;;;;;;;1470475;40;20426;-79
2021/05/13 01:12:47;;;;;;;15.32;5.20;;;;;;;;;;1471080;40;20394;-80
2021/05/13 01:14:10;;;;;;;11.05;5.43;;;;;;;;;;1474537;40;20489;-80
2021/05/13 01:15:34;;;;;;;11.02;5.22;;;;;;;;;;1474253;40;20384;-80
2021/05/13 01:16:48;;;;;;;8.95;5.20;;;;;;;;;;1473621;40;20388;-80
2021/05/13 01:18:58;;;;;;;15.35;6.07;;;;;;;;;;1474330;40;20416;-80
2021/05/13 01:19:59;;;;;;;14.32;5.63;;;;;;;;;;1473570;40;20448;-80
2021/05/13 01:21:01;;;;;;;11.65;5.20;;;;;;;;;;1473665;40;20775;-80
2021/05/13 01:22:03;;;;;;;12.20;5.22;;;;;;;;;;1469254;40;20773;-80
2021/05/13 01:23:07;;;;;;;11.98;5.50;;;;;;;;;;1469567;40;20795;-81
2021/05/13 01:24:11;;;;;;;17.55;5.80;;;;;;;;;;1474519;40;20404;-80
2021/05/13 01:25:13;;;;;;;12.25;5.55;;;;;;;;;;1472588;40;20415;-81
2021/05/13 01:26:18;;;;;;;13.75;5.50;;;;;;;;;;1470047;40;20417;-80
2021/05/13 01:27:20;;;;;;;13.55;5.43;;;;;;;;;;1473685;40;20511;-80
2021/05/13 01:28:25;;;;;;;15.57;5.78;;;;;;;;;;1473682;40;20887;-79
2021/05/13 01:29:27;;;;;;;13.02;5.85;;;;;;;;;;1473481;40;20404;-79
2021/05/13 01:30:29;;;;;;;13.57;5.63;;;;;;;;;;1474368;40;20486;-80
2021/05/13 01:31:31;;;;;;;18.73;5.75;;;;;;;;;;1474026;40;20740;-80
2021/05/13 01:32:32;;;;;;;10.98;5.47;;;;;;;;;;1474235;40;20408;-81
2021/05/13 01:33:34;;;;;;;15.35;6.05;;;;;;;;;;1473638;40;20423;-81
2021/05/13 01:34:36;;;;;;;13.52;7.00;;;;;;;;;;1473869;40;20407;-81
2021/05/13 01:35:39;;;;;;;14.95;6.05;;;;;;;;;;1472767;40;20400;-80
2021/05/13 01:36:41;;;;;;;16.88;6.05;;;;;;;;;;1472136;40;20671;-79
2021/05/13 01:37:42;;;;;;;18.88;6.32;;;;;;;;;;1469276;40;20576;-80
2021/05/13 01:38:44;;;;;;;13.07;6.47;;;;;;;;;;1471100;40;20424;-79
2021/05/13 01:39:45;;;;;;;15.07;6.75;;;;;;;;;;1469832;40;20655;-79
2021/05/13 01:40:51;;;;;;;14.15;5.85;;;;;;;;;;1470064;40;20414;-80
2021/05/13 01:41:53;;;;;;;14.10;5.90;;;;;;;;;;1470434;40;20417;-80
2021/05/13 01:42:55;;;;;;;14.18;6.38;;;;;;;;;;1473654;40;20416;-80
2021/05/13 01:43:56;;;;;;;14.80;6.68;;;;;;;;;;1474435;40;20427;-80
2021/05/13 01:44:58;;;;;;;13.43;6.03;;;;;;;;;;1473973;40;20419;-80
2021/05/13 01:46:00;;;;;;;12.82;5.97;;;;;;;;;;1473583;40;20805;-80
2021/05/13 01:47:02;;;;;;;11.68;5.20;;;;;;;;;;1474281;40;20407;-79
2021/05/13 01:48:04;;;;;;;14.65;7.28;;;;;;;;;;1473511;40;20400;-80
2021/05/13 01:49:16;;;;;;;14.02;6.00;;;;;;;;;;1473741;40;20670;-79
2021/05/13 01:50:18;;;;;;;15.52;6.38;;;;;;;;;;1473388;40;20424;-80
2021/05/13 01:51:19;;;;;;;12.07;5.82;;;;;;;;;;1473685;40;20419;-79
2021/05/13 01:52:21;;;;;;;15.85;6.70;;;;;;;;;;1472710;40;20415;-80
2021/05/13 01:53:22;;;;;;;11.57;6.10;;;;;;;;;;1472700;40;20454;-79
2021/05/13 01:54:24;;;;;;;11.85;6.15;;;;;;;;;;1469724;40;20458;-80
2021/05/13 01:55:26;;;;;;;14.50;5.97;;;;;;;;;;1466109;40;20419;-80
2021/05/13 01:56:27;;;;;;;13.93;6.50;;;;;;;;;;1466439;40;20437;-80
2021/05/13 01:57:29;;;;;;;13.80;6.50;;;;;;;;;;1472133;40;20426;-79
2021/05/13 01:58:30;;;;;;;16.63;6.45;;;;;;;;;;1474763;40;20515;-80
2021/05/13 01:59:32;;;;;;;14.43;5.95;;;;;;;;;;1474914;40;20412;-80
2021/05/13 02:00:35;;;;;;;10.18;5.90;;;;;;;;;;1473763;40;20428;-81
2021/05/13 02:01:37;;;;;;;14.73;6.25;;;;;;;;;;1473736;40;20411;-81
2021/05/13 02:02:38;;;;;;;12.75;6.32;;;;;;;;;;1473317;40;20420;-81
2021/05/13 02:03:42;;;;;;;17.73;6.68;;;;;;;;;;1473454;40;20486;-80
2021/05/13 02:04:44;;;;;;;13.65;7.18;;;;;;;;;;1473869;40;20423;-80
2021/05/13 02:05:45;;;;;;;13.50;7.28;;;;;;;;;;1474015;40;20424;-80
2021/05/13 02:06:47;;;;;;;14.43;6.75;;;;;;;;;;1472966;40;20408;-80
2021/05/13 02:07:49;;;;;;;12.07;6.00;;;;;;;;;;1470195;40;20409;-80
2021/05/13 02:08:51;;;;;;;13.75;6.07;;;;;;;;;;1473358;40;20416;-80
2021/05/13 02:09:52;;;;;;;14.57;6.15;;;;;;;;;;1473886;40;20518;-80
2021/05/13 02:10:54;;;;;;;16.00;5.95;;;;;;;;;;1469816;40;20894;-80
2021/05/13 02:11:58;;;;;;;15.75;6.88;;;;;;;;;;1473868;40;20490;-79
2021/05/13 02:13:00;;;;;;;12.88;6.30;;;;;;;;;;1474342;40;20415;-80
2021/05/13 02:14:02;;;;;;;13.90;6.85;;;;;;;;;;1474412;40;20410;-80
2021/05/13 02:15:11;;;;;;;15.00;5.97;;;;;;;;;;1473408;40;20494;-80
2021/05/13 02:16:13;;;;;;;12.38;6.75;;;;;;;;;;1470224;40;20425;-80
2021/05/13 02:17:15;;;;;;;14.23;6.93;;;;;;;;;;1469661;40;20478;-80
2021/05/13 02:18:16;;;;;;;14.05;7.60;;;;;;;;;;1470230;40;20405;-80
2021/05/13 02:19:18;;;;;;;13.85;6.35;;;;;;;;;;1469917;40;21069;-79
2021/05/13 02:20:21;;;;;;;12.45;6.85;;;;;;;;;;1469945;40;20954;-79
2021/05/13 02:21:23;;;;;;;14.88;7.13;;;;;;;;;;1470947;40;20404;-79
2021/05/13 02:22:24;;;;;;;12.38;6.68;;;;;;;;;;1470606;40;20422;-79
2021/05/13 02:23:26;;;;;;;13.48;6.13;;;;;;;;;;1471086;40;20419;-79
2021/05/13 02:24:27;;;;;;;15.63;7.15;;;;;;;;;;1474297;40;20435;-79
2021/05/13 02:25:31;;;;;;;15.57;7.38;;;;;;;;;;1473401;40;20799;-80
2021/05/13 02:26:33;;;;;;;19.95;7.30;;;;;;;;;;1473847;40;20403;-79
2021/05/13 02:27:36;;;;;;;17.58;8.57;;;;;;;;;;1472144;40;20795;-81
2021/05/13 02:28:37;;;;;;;13.02;7.47;;;;;;;;;;1473236;40;20439;-80
2021/05/13 02:29:39;;;;;;;13.32;6.90;;;;;;;;;;1474057;40;20412;-81
2021/05/13 02:30:40;;;;;;;17.35;8.40;;;;;;;;;;1474024;40;20404;-81
2021/05/13 02:31:43;;;;;;;16.83;8.05;;;;;;;;;;1473364;40;20426;-81
2021/05/13 02:32:45;;;;;;;12.63;7.70;;;;;;;;;;1473574;40;20802;-80
2021/05/13 02:33:46;;;;;;;16.17;7.32;;;;;;;;;;1473613;40;20411;-80
2021/05/13 02:34:48;;;;;;;15.95;8.15;;;;;;;;;;1473557;40;20482;-80
2021/05/13 02:35:50;;;;;;;18.75;8.68;;;;;;;;;;1473225;40;20479;-80
2021/05/13 02:36:51;;;;;;;16.83;8.45;;;;;;;;;;1471340;40;20484;-80
2021/05/13 02:37:54;;;;;;;17.00;8.05;;;;;;;;;;1473906;40;20923;-80
2021/05/13 02:38:55;;;;;;;16.25;7.45;;;;;;;;;;1469985;40;20823;-80
2021/05/13 02:39:57;;;;;;;16.25;8.13;;;;;;;;;;1465619;40;20422;-80
2021/05/13 02:40:59;;;;;;;19.58;8.38;;;;;;;;;;1472448;40;20413;-80
2021/05/13 02:42:00;;;;;;;15.40;8.50;;;;;;;;;;1472253;40;20513;-81
2021/05/13 02:43:03;;;;;;;18.05;8.48;;;;;;;;;;1470332;40;20417;-81
2021/05/13 02:44:05;;;;;;;14.10;8.32;;;;;;;;;;1470013;40;20413;-81
2021/05/13 02:45:08;;;;;;;16.05;8.48;;;;;;;;;;1469482;40;20479;-80
2021/05/13 02:46:10;;;;;;;13.57;7.97;;;;;;;;;;1469527;40;20424;-80
2021/05/13 02:47:12;;;;;;;16.52;8.68;;;;;;;;;;1469879;40;20450;-80
2021/05/13 02:48:13;;;;;;;14.43;9.02;;;;;;;;;;1469803;40;20435;-80
2021/05/13 02:49:15;;;;;;;13.70;8.25;;;;;;;;;;1469395;40;20437;-80
2021/05/13 02:50:16;;;;;;;22.70;9.00;;;;;;;;;;1465640;40;20801;-80
2021/05/13 02:51:18;;;;;;;14.68;9.07;;;;;;;;;;1469906;40;20421;-80
2021/05/13 02:52:20;;;;;;;21.10;9.85;;;;;;;;;;1472438;40;20808;-80
2021/05/13 02:53:21;;;;;;;15.82;9.10;;;;;;;;;;1471377;40;20479;-80
2021/05/13 02:54:23;;;;;;;20.55;9.55;;;;;;;;;;1469560;40;20409;-80
2021/05/13 02:55:24;;;;;;;16.65;9.05;;;;;;;;;;1469471;40;20401;-80
2021/05/13 02:56:26;;;;;;;18.20;9.38;;;;;;;;;;1469363;40;20800;-80
2021/05/13 02:57:28;;;;;;;17.15;9.20;;;;;;;;;;1469286;40;20406;-80
2021/05/13 02:58:30;;;;;;;18.20;9.80;;;;;;;;;;1473627;40;20428;-80
2021/05/13 02:59:59;;;;;;;21.25;10.18;;;;;;;;;;1473303;40;20533;-80
2021/05/13 03:02:08;;;;;;;14.40;9.70;;;;;;;;;;1474079;40;20506;-81
2021/05/13 03:03:09;;;;;;;16.40;9.98;;;;;;;;;;1473117;40;20408;-80
2021/05/13 03:04:11;;;;;;;18.33;10.48;;;;;;;;;;1469817;40;20437;-80
2021/05/13 03:05:15;;;;;;;17.38;10.50;;;;;;;;;;1471657;40;20489;-81
2021/05/13 03:06:17;;;;;;;19.95;10.57;;;;;;;;;;1473246;40;20451;-80
2021/05/13 03:07:18;;;;;;;15.70;10.00;;;;;;;;;;1472954;40;20769;-80
2021/05/13 03:08:20;;;;;;;17.65;10.35;;;;;;;;;;1473353;40;20789;-80
2021/05/13 03:09:22;;;;;;;19.83;10.40;;;;;;;;;;1473552;40;20450;-80
2021/05/13 03:11:58;;;;;;;20.25;11.40;;;;;;;;;;1467095;40;20675;-80
2021/05/13 03:13:01;;;;;;;19.38;10.60;;;;;;;;;;1467639;40;20424;-80
2021/05/13 03:14:04;;;;;;;18.50;11.75;;;;;;;;;;1470174;40;20421;-80
2021/05/13 03:15:06;;;;;;;22.20;11.55;;;;;;;;;;1474991;40;20413;-80
2021/05/13 03:16:08;;;;;;;19.08;10.77;;;;;;;;;;1479048;40;20494;-79
2021/05/13 03:17:09;;;;;;;20.88;11.40;;;;;;;;;;1479969;40;20423;-81
2021/05/13 03:18:11;;;;;;;24.85;11.68;;;;;;;;;;1479134;40;20625;-80
2021/05/13 03:19:19;;;;;;;18.48;11.55;;;;;;;;;;1473033;40;20461;-80
2021/05/13 03:20:25;;;;;;;16.13;11.18;;;;;;;;;;1469743;40;20422;-80
2021/05/13 03:21:31;;;;;;;20.65;11.48;;;;;;;;;;1473173;40;20409;-79
2021/05/13 03:22:33;;;;;;;19.00;11.23;;;;;;;;;;1474270;40;20420;-79
2021/05/13 03:24:27;;;;;;;22.02;11.07;;;;;;;;;;1474470;40;20412;-80
2021/05/13 03:25:03;;;;;;;19.70;12.13;;;;;;;;;;1473845;40;20407;-80
2021/05/13 03:26:05;;;;;;;19.52;12.43;;;;;;;;;;1474379;40;20618;-80
2021/05/13 03:27:42;;;;;;;20.42;11.35;;;;;;;;;;1473833;40;20418;-80
2021/05/13 03:28:34;;;;;;;25.08;13.63;;;;;;;;;;1469085;40;20461;-80
2021/05/13 03:29:36;;;;;;;18.98;12.07;;;;;;;;;;1469735;40;20413;-80
2021/05/13 03:30:40;;;;;;;20.40;12.75;;;;;;;;;;1470787;40;20433;-81
2021/05/13 03:31:42;;;;;;;23.88;13.00;;;;;;;;;;1477361;40;20750;-81
2021/05/13 03:32:44;;;;;;;23.48;13.32;;;;;;;;;;1473293;40;20478;-80
2021/05/13 03:33:45;;;;;;;20.58;12.50;;;;;;;;;;1473596;40;20424;-80
2021/05/13 03:34:47;;;;;;;22.05;11.93;;;;;;;;;;1473488;40;20412;-80
2021/05/13 03:35:48;;;;;;;20.42;12.60;;;;;;;;;;1473010;40;20408;-80
2021/05/13 03:36:50;;;;;;;17.08;11.45;;;;;;;;;;1471661;40;20454;-80
2021/05/13 03:37:52;;;;;;;19.35;13.38;;;;;;;;;;1473891;40;20408;-81
2021/05/13 03:38:54;;;;;;;21.47;12.37;;;;;;;;;;1469183;40;20817;-80
2021/05/13 03:39:56;;;;;;;22.88;13.50;;;;;;;;;;1469471;40;20422;-80
2021/05/13 03:40:57;;;;;;;20.10;12.55;;;;;;;;;;1473560;40;20426;-80
2021/05/13 03:41:59;;;;;;;21.92;14.02;;;;;;;;;;1473930;40;20415;-80
2021/05/13 03:43:01;;;;;;;26.63;13.25;;;;;;;;;;1470798;40;20483;-80
2021/05/13 03:44:04;;;;;;;21.20;12.73;;;;;;;;;;1470390;40;20662;-80
2021/05/13 03:45:06;;;;;;;22.08;12.02;;;;;;;;;;1473894;40;20651;-81
2021/05/13 03:46:08;;;;;;;18.98;12.70;;;;;;;;;;1474255;40;20412;-81
2021/05/13 03:47:10;;;;;;;20.05;12.93;;;;;;;;;;1470293;40;20430;-81
2021/05/13 03:48:13;;;;;;;22.85;13.05;;;;;;;;;;1474373;40;20404;-80
2021/05/13 03:49:15;;;;;;;22.33;13.15;;;;;;;;;;1474386;40;20467;-80
2021/05/13 03:50:16;;;;;;;21.08;12.32;;;;;;;;;;1474519;40;20459;-80
2021/05/13 03:51:18;;;;;;;20.52;12.55;;;;;;;;;;1474195;40;20412;-81
2021/05/13 03:52:20;;;;;;;19.77;12.52;;;;;;;;;;1470171;40;20409;-81
2021/05/13 03:53:21;;;;;;;19.80;13.40;;;;;;;;;;1470882;40;20420;-80
2021/05/13 03:54:23;;;;;;;20.77;13.35;;;;;;;;;;1474641;40;20669;-80
2021/05/13 03:55:24;;;;;;;19.23;13.18;;;;;;;;;;1473647;40;20427;-80
2021/05/13 03:56:26;;;;;;;27.60;12.85;;;;;;;;;;1474310;40;20416;-80
2021/05/13 03:57:28;;;;;;;19.75;12.60;;;;;;;;;;1473620;40;20414;-80
2021/05/13 03:58:37;;;;;;;25.50;12.73;;;;;;;;;;1474272;40;20860;-80
2021/05/13 03:59:40;;;;;;;21.92;12.93;;;;;;;;;;1474672;40;20423;-81
2021/05/13 04:00:48;;;;;;;22.88;12.23;;;;;;;;;;1478019;40;20418;-80
2021/05/13 04:02:08;;;;;;;19.38;13.02;;;;;;;;;;1477197;40;20461;-80
2021/05/13 04:03:10;;;;;;;24.17;13.23;;;;;;;;;;1478021;40;20667;-80
2021/05/13 04:04:12;;;;;;;18.88;12.68;;;;;;;;;;1478550;40;20445;-79
2021/05/13 04:05:14;;;;;;;20.85;12.65;;;;;;;;;;1477967;40;20437;-80
2021/05/13 04:06:16;;;;;;;18.05;12.55;;;;;;;;;;1469546;40;20420;-80
2021/05/13 04:07:18;;;;;;;21.10;13.00;;;;;;;;;;1469610;40;20422;-80
2021/05/13 04:08:19;;;;;;;21.27;13.00;;;;;;;;;;1476333;40;20441;-79
2021/05/13 04:09:21;;;;;;;20.13;13.18;;;;;;;;;;1478343;40;20457;-79
2021/05/13 04:10:22;;;;;;;20.63;12.95;;;;;;;;;;1478849;40;20476;-79
2021/05/13 04:11:24;;;;;;;20.73;13.55;;;;;;;;;;1478791;40;20500;-79
2021/05/13 04:12:26;;;;;;;21.92;13.10;;;;;;;;;;1477311;40;20783;-80
2021/05/13 04:13:28;;;;;;;19.60;12.80;;;;;;;;;;1475910;40;21784;-79
2021/05/13 04:14:29;;;;;;;20.67;14.00;;;;;;;;;;1478753;40;20796;-80
2021/05/13 04:15:31;;;;;;;18.70;12.90;;;;;;;;;;1470205;40;20412;-79
2021/05/13 04:16:35;;;;;;;22.65;13.65;;;;;;;;;;1469790;40;20410;-80
2021/05/13 04:17:37;;;;;;;19.13;12.70;;;;;;;;;;1478753;40;20410;-80
2021/05/13 04:18:39;;;;;;;22.92;12.15;;;;;;;;;;1478814;40;20414;-80
2021/05/13 04:19:41;;;;;;;19.55;12.43;;;;;;;;;;1474038;40;20407;-80
2021/05/13 04:20:42;;;;;;;18.75;13.30;;;;;;;;;;1473144;40;20440;-80
2021/05/13 04:21:44;;;;;;;21.73;12.40;;;;;;;;;;1471709;40;20822;-80
2021/05/13 04:22:46;;;;;;;21.27;12.60;;;;;;;;;;1469873;40;20465;-79
2021/05/13 04:23:48;;;;;;;18.52;12.13;;;;;;;;;;1477339;40;20799;-80
2021/05/13 04:24:49;;;;;;;18.77;12.07;;;;;;;;;;1478574;40;20421;-80
2021/05/13 04:25:51;;;;;;;25.02;12.27;;;;;;;;;;1478203;40;20406;-80
2021/05/13 04:26:53;;;;;;;16.92;12.43;;;;;;;;;;1478747;40;20853;-81
2021/05/13 04:27:55;;;;;;;22.63;12.20;;;;;;;;;;1477458;40;20406;-80
2021/05/13 04:28:57;;;;;;;15.98;11.85;;;;;;;;;;1469597;40;20457;-80
2021/05/13 04:29:58;;;;;;;19.48;11.77;;;;;;;;;;1470542;40;20497;-80
2021/05/13 04:31:00;;;;;;;22.40;11.68;;;;;;;;;;1479193;40;20481;-80
2021/05/13 04:32:02;;;;;;;16.17;11.35;;;;;;;;;;1478413;40;20417;-80
2021/05/13 04:33:04;;;;;;;20.33;11.25;;;;;;;;;;1477357;40;20383;-80
2021/05/13 04:34:06;;;;;;;19.45;11.02;;;;;;;;;;1473987;40;20416;-80
2021/05/13 04:35:08;;;;;;;18.73;11.23;;;;;;;;;;1473963;40;20430;-80
2021/05/13 04:36:10;;;;;;;19.98;11.57;;;;;;;;;;1476887;40;20394;-80
2021/05/13 04:37:11;;;;;;;17.67;11.65;;;;;;;;;;1477886;40;20413;-80
2021/05/13 04:38:16;;;;;;;23.65;12.82;;;;;;;;;;1477920;40;20414;-79
2021/05/13 04:39:18;;;;;;;16.98;10.88;;;;;;;;;;1474633;40;21077;-79
2021/05/13 04:40:19;;;;;;;16.65;10.95;;;;;;;;;;1474663;40;20424;-80
2021/05/13 04:41:21;;;;;;;15.70;11.05;;;;;;;;;;1469312;40;20453;-80
2021/05/13 04:42:23;;;;;;;19.20;11.48;;;;;;;;;;1469066;40;20787;-80
2021/05/13 04:43:31;;;;;;;18.90;10.63;;;;;;;;;;1474202;40;20776;-80
2021/05/13 04:44:35;;;;;;;17.75;11.07;;;;;;;;;;1470011;40;20393;-79
2021/05/13 04:45:37;;;;;;;14.88;10.43;;;;;;;;;;1471680;40;21104;-80
2021/05/13 04:46:38;;;;;;;15.15;10.20;;;;;;;;;;1478422;40;20800;-81
2021/05/13 04:49:54;;;;;;;13.40;10.02;;;;;;;;;;1478433;40;20414;-80
2021/05/13 04:50:56;;;;;;;16.30;10.00;;;;;;;;;;1478515;40;20846;-80
2021/05/13 04:51:58;;;;;;;15.57;10.32;;;;;;;;;;1476165;40;20420;-80
2021/05/13 04:53:04;;;;;;;14.68;10.57;;;;;;;;;;1473237;40;20489;-80
2021/05/13 04:54:06;;;;;;;16.05;9.90;;;;;;;;;;1469926;40;20465;-80
2021/05/13 04:55:09;;;;;;;17.23;10.38;;;;;;;;;;1465759;40;20423;-80
2021/05/13 04:56:10;;;;;;;15.90;9.73;;;;;;;;;;1465879;40;20415;-81
2021/05/13 04:57:12;;;;;;;18.42;10.27;;;;;;;;;;1474564;40;20423;-81
2021/05/13 04:58:13;;;;;;;12.80;9.20;;;;;;;;;;1472762;40;20404;-80
2021/05/13 04:59:15;;;;;;;17.45;9.80;;;;;;;;;;1473689;40;20786;-80
2021/05/13 05:00:17;;;;;;;19.77;10.80;;;;;;;;;;1474145;40;20415;-81
2021/05/13 05:01:19;;;;;;;14.73;10.63;;;;;;;;;;1474957;40;20431;-81
2021/05/13 05:02:21;;;;;;;14.65;9.73;;;;;;;;;;1478455;40;20403;-80
2021/05/13 05:03:23;;;;;;;14.63;9.88;;;;;;;;;;1476223;40;20437;-81
2021/05/13 05:04:24;;;;;;;15.63;9.82;;;;;;;;;;1477790;40;20509;-81
2021/05/13 05:05:26;;;;;;;14.85;9.98;;;;;;;;;;1477589;40;20802;-81
2021/05/13 05:06:28;;;;;;;16.17;9.77;;;;;;;;;;1472507;40;20998;-81
2021/05/13 05:07:30;;;;;;;14.05;10.15;;;;;;;;;;1468568;40;20422;-81
2021/05/13 05:08:32;;;;;;;14.85;9.90;;;;;;;;;;1466832;40;20466;-81
2021/05/13 05:09:33;;;;;;;16.23;10.23;;;;;;;;;;1470142;40;20409;-81
2021/05/13 05:10:35;;;;;;;16.08;10.02;;;;;;;;;;1476182;40;20438;-80
2021/05/13 05:11:37;;;;;;;16.02;10.63;;;;;;;;;;1478488;40;20667;-81
2021/05/13 05:12:39;;;;;;;13.63;9.88;;;;;;;;;;1476268;40;20836;-82
2021/05/13 05:13:41;;;;;;;14.50;10.75;;;;;;;;;;1474137;40;20412;-82
2021/05/13 05:14:42;;;;;;;15.27;10.40;;;;;;;;;;1474238;40;20416;-81
2021/05/13 05:15:44;;;;;;;16.15;10.57;;;;;;;;;;1469866;40;20405;-81
2021/05/13 05:16:45;;;;;;;16.42;10.27;;;;;;;;;;1469157;40;20716;-81
2021/05/13 05:17:47;;;;;;;14.63;11.20;;;;;;;;;;1473909;40;20682;-81
2021/05/13 05:18:49;;;;;;;16.67;10.77;;;;;;;;;;1473740;40;20418;-81
2021/05/13 05:19:50;;;;;;;15.00;10.50;;;;;;;;;;1469812;40;20823;-81
2021/05/13 05:20:53;;;;;;;15.73;10.55;;;;;;;;;;1470053;40;20886;-81
2021/05/13 05:21:54;;;;;;;15.38;11.13;;;;;;;;;;1476075;40;20790;-81
2021/05/13 05:22:56;;;;;;;13.32;10.65;;;;;;;;;;1480053;40;20466;-81
2021/05/13 05:23:58;;;;;;;13.77;9.90;;;;;;;;;;1474782;40;20931;-81
2021/05/13 05:24:59;;;;;;;16.02;9.85;;;;;;;;;;1474161;40;20998;-81
2021/05/13 05:26:01;;;;;;;15.73;10.05;;;;;;;;;;1469870;40;20877;-81
2021/05/13 05:27:07;;;;;;;14.40;10.05;;;;;;;;;;1470328;40;20414;-81
2021/05/13 05:28:09;;;;;;;13.77;10.25;;;;;;;;;;1476712;40;20401;-81
2021/05/13 05:29:10;;;;;;;15.45;9.70;;;;;;;;;;1477409;40;20453;-81
2021/05/13 05:30:12;;;;;;;12.65;10.70;;;;;;;;;;1482612;40;21154;-81
2021/05/13 05:31:14;;;;;;;16.10;10.23;;;;;;;;;;1482611;40;20416;-81
2021/05/13 05:32:15;;;;;;;14.02;10.25;;;;;;;;;;1478178;40;20410;-81
2021/05/13 05:33:18;;;;;;;16.20;10.50;;;;;;;;;;1477758;40;20426;-81
2021/05/13 05:34:19;;;;;;;18.23;10.98;;;;;;;;;;1482725;40;20762;-81
2021/05/13 05:35:21;;;;;;;13.57;9.77;;;;;;;;;;1472676;40;20471;-81
2021/05/13 05:36:26;;;;;;;17.00;11.02;;;;;;;;;;1473452;40;20432;-81
2021/05/13 05:37:27;;;;;;;12.88;10.43;;;;;;;;;;1473983;40;20416;-81
2021/05/13 05:38:29;;;;;;;13.43;10.15;;;;;;;;;;1480180;40;20731;-81
2021/05/13 05:39:31;;;;;;;14.27;10.90;;;;;;;;;;1477963;40;20402;-81
2021/05/13 05:40:33;;;;;;;17.20;11.27;;;;;;;;;;1478120;40;20411;-81
2021/05/13 05:41:35;;;;;;;15.68;10.80;;;;;;;;;;1480199;40;20489;-80
2021/05/13 05:42:37;;;;;;;14.10;10.30;;;;;;;;;;1484864;40;20412;-81
2021/05/13 05:43:38;;;;;;;14.93;11.18;;;;;;;;;;1482971;40;20460;-81
2021/05/13 05:44:40;;;;;;;12.73;10.90;;;;;;;;;;1483427;40;20445;-81
2021/05/13 05:45:42;;;;;;;13.60;10.65;;;;;;;;;;1487979;40;20404;-82
2021/05/13 05:46:44;;;;;;;15.70;11.15;;;;;;;;;;1488401;40;20424;-79
2021/05/13 05:47:47;;;;;;;15.23;11.27;;;;;;;;;;1482483;40;20472;-81
2021/05/13 05:48:49;;;;;;;16.33;10.93;;;;;;;;;;1483159;40;20421;-80
2021/05/13 05:49:50;;;;;;;16.52;11.48;;;;;;;;;;1483221;40;20418;-80
2021/05/13 05:50:52;;;;;;;18.73;11.82;;;;;;;;;;1482305;40;20409;-80
2021/05/13 05:51:54;;;;;;;13.25;10.52;;;;;;;;;;1478870;40;20830;-81
2021/05/13 05:52:55;;;;;;;17.80;10.57;;;;;;;;;;1478226;40;20403;-80
2021/05/13 05:53:57;;;;;;;15.50;11.27;;;;;;;;;;1482671;40;20797;-81
2021/05/13 05:54:59;;;;;;;19.13;11.43;;;;;;;;;;1478430;40;20410;-80
2021/05/13 05:56:00;;;;;;;15.85;11.25;;;;;;;;;;1474167;40;20872;-80
2021/05/13 05:57:02;;;;;;;17.60;11.90;;;;;;;;;;1474612;40;20776;-81
2021/05/13 05:58:04;;;;;;;15.75;11.20;;;;;;;;;;1478344;40;20399;-82
2021/05/13 05:59:07;;;;;;;16.77;11.68;;;;;;;;;;1482531;40;20415;-82
2021/05/13 06:00:09;;;;;;;17.83;11.15;;;;;;;;;;1477047;40;20422;-82
2021/05/13 06:01:11;;;;;;;15.70;10.80;;;;;;;;;;1478010;40;20447;-82
2021/05/13 06:02:12;;;;;;;16.08;10.88;;;;;;;;;;1478835;40;20433;-80
2021/05/13 06:03:14;;;;;;;16.55;11.23;;;;;;;;;;1478136;40;20414;-82
2021/05/13 06:04:16;;;;;;;17.80;10.55;;;;;;;;;;1478355;40;20513;-83
2021/05/13 06:05:18;;;;;;;14.30;11.10;;;;;;;;;;1478185;40;20422;-82
2021/05/13 06:06:20;;;;;;;15.88;11.45;;;;;;;;;;1477595;40;20410;-84
2021/05/13 06:07:22;;;;;;;14.48;10.55;;;;;;;;;;1474007;40;20435;-82
2021/05/13 06:08:24;;;;;;;15.25;10.43;;;;;;;;;;1469525;40;20421;-85
2021/05/13 06:09:25;;;;;;;15.07;10.70;;;;;;;;;;1469568;40;20423;-81
2021/05/13 06:10:27;;;;;;;13.57;10.05;;;;;;;;;;1477968;40;20711;-83
2021/05/13 06:11:28;;;;;;;15.20;10.90;;;;;;;;;;1478349;40;20711;-84
2021/05/13 06:12:32;;;;;;;13.40;10.77;;;;;;;;;;1472912;40;20408;-83
2021/05/13 06:13:34;;;;;;;15.82;11.13;;;;;;;;;;1473886;40;20431;-85